createdAt,value
2023-05-10T00:00:21.551Z,45.76
2023-05-10T00:02:53.935Z,45.34
2023-05-10T00:05:23.684Z,45.37
2023-05-10T00:07:53.216Z,45.33
2023-05-10T00:10:22.689Z,45.62
2023-05-10T00:12:52.247Z,46.10
2023-05-10T00:15:21.710Z,46.12
2023-05-10T00:17:53.826Z,45.72
2023-05-10T00:20:23.332Z,45.68
2023-05-10T00:22:52.740Z,45.72
2023-05-10T00:25:22.666Z,46.25
2023-05-10T00:27:52.277Z,46.09
2023-05-10T00:30:21.854Z,46.24
2023-05-10T00:32:54.100Z,46.21
2023-05-10T00:35:23.630Z,46.57
2023-05-10T00:37:53.203Z,46.76
2023-05-10T00:40:24.528Z,46.67
2023-05-10T00:42:58.513Z,46.51
2023-05-10T00:45:28.466Z,46.56
2023-05-10T00:48:01.070Z,47.20
2023-05-10T00:50:30.417Z,46.97
2023-05-10T00:53:00.499Z,47.17
2023-05-10T00:55:30.352Z,47.23
2023-05-10T00:57:59.836Z,47.02
2023-05-10T01:00:30.690Z,47.11
2023-05-10T01:03:02.947Z,47.30
2023-05-10T01:05:33.016Z,47.29
2023-05-10T01:08:02.474Z,47.50
2023-05-10T01:10:34.282Z,47.45
2023-05-10T01:13:04.268Z,47.88
2023-05-10T01:15:34.865Z,47.92
2023-05-10T01:18:07.452Z,48.09
2023-05-10T01:20:46.905Z,48.35
2023-05-10T01:23:39.615Z,47.96
2023-05-10T01:26:28.416Z,48.26
2023-05-10T01:29:22.589Z,48.31
2023-05-10T01:32:19.985Z,48.66
2023-05-10T01:35:00.893Z,48.85
2023-05-10T01:37:43.206Z,48.94
2023-05-10T01:40:29.730Z,49.01
2023-05-10T01:43:04.615Z,49.25
2023-05-10T01:45:37.888Z,49.31
2023-05-10T01:48:13.422Z,49.52
2023-05-10T01:50:47.575Z,49.39
2023-05-10T01:53:22.527Z,49.65
2023-05-10T01:55:56.191Z,49.94
2023-05-10T01:58:31.028Z,49.91
2023-05-10T02:01:03.770Z,49.92
2023-05-10T02:03:38.307Z,50.14
2023-05-10T02:06:09.525Z,50.49
2023-05-10T02:08:40.052Z,50.74
2023-05-10T02:11:10.483Z,50.55
2023-05-10T02:13:41.432Z,50.80
2023-05-10T02:16:12.128Z,51.19
2023-05-10T02:18:45.173Z,50.79
2023-05-10T02:21:16.094Z,51.16
2023-05-10T02:23:46.921Z,51.23
2023-05-10T02:26:17.732Z,51.04
2023-05-10T02:28:48.452Z,51.46
2023-05-10T02:31:18.876Z,51.36
2023-05-10T02:33:52.708Z,51.85
2023-05-10T02:36:24.858Z,51.80
2023-05-10T02:38:56.561Z,51.95
2023-05-10T02:41:28.854Z,51.91
2023-05-10T02:44:03.722Z,51.99
2023-05-10T02:46:34.196Z,51.92
2023-05-10T02:49:07.866Z,52.07
2023-05-10T02:51:41.172Z,52.04
2023-05-10T02:54:15.747Z,52.39
2023-05-10T02:56:50.946Z,52.18
2023-05-10T02:59:20.775Z,52.28
2023-05-10T03:01:50.435Z,52.41
2023-05-10T03:04:22.736Z,52.51
2023-05-10T03:06:52.361Z,52.46
2023-05-10T03:09:22.677Z,52.64
2023-05-10T03:12:00.472Z,53.01
2023-05-10T03:14:47.159Z,52.69
2023-05-10T03:17:21.700Z,53.12
2023-05-10T03:19:58.160Z,53.53
2023-05-10T03:22:34.354Z,53.89
2023-05-10T03:25:07.551Z,54.01
2023-05-10T03:27:40.215Z,54.60
2023-05-10T03:30:12.438Z,54.48
2023-05-10T03:32:42.366Z,54.82
2023-05-10T03:35:16.906Z,54.60
2023-05-10T03:37:48.024Z,55.39
2023-05-10T03:40:18.218Z,55.65
2023-05-10T03:42:48.064Z,56.29
2023-05-10T03:45:17.560Z,56.33
2023-05-10T03:47:47.058Z,56.71
2023-05-10T03:50:19.593Z,57.16
2023-05-10T03:52:49.091Z,56.99
2023-05-10T03:55:18.566Z,57.65
2023-05-10T03:57:50.647Z,58.03
2023-05-10T04:00:20.577Z,57.67
2023-05-10T04:02:53.879Z,57.94
2023-05-10T04:05:26.327Z,57.74
2023-05-10T04:07:56.200Z,58.34
2023-05-10T04:10:25.665Z,58.68
2023-05-10T04:12:55.118Z,58.43
2023-05-10T04:15:24.661Z,57.96
2023-05-10T04:17:54.826Z,59.43
2023-05-10T04:20:27.012Z,58.57
2023-05-10T04:22:56.699Z,58.73
2023-05-10T04:25:26.260Z,58.99
2023-05-10T04:27:55.808Z,59.18
2023-05-10T04:30:25.212Z,60.24
2023-05-10T04:32:54.652Z,59.97
2023-05-10T04:35:27.296Z,60.15
2023-05-10T04:37:56.535Z,60.35
2023-05-10T04:40:26.008Z,60.97
2023-05-10T04:42:55.591Z,60.99
2023-05-10T04:45:25.236Z,61.67
2023-05-10T04:47:54.695Z,62.42
2023-05-10T04:50:27.012Z,62.11
2023-05-10T04:52:56.605Z,62.04
2023-05-10T04:55:26.184Z,62.14
2023-05-10T04:57:57.851Z,62.58
2023-05-10T05:00:27.395Z,63.16
2023-05-10T05:02:56.906Z,63.28
2023-05-10T05:05:29.030Z,63.91
2023-05-10T05:07:58.484Z,62.77
2023-05-10T05:10:27.931Z,63.39
2023-05-10T05:12:57.408Z,64.45
2023-05-10T05:15:26.956Z,64.21
2023-05-10T05:17:56.558Z,65.03
2023-05-10T05:20:26.048Z,66.14
2023-05-10T05:22:58.182Z,65.46
2023-05-10T05:25:27.644Z,65.48
2023-05-10T05:27:57.168Z,66.04
2023-05-10T05:30:26.610Z,66.22
2023-05-10T05:32:56.171Z,66.61
2023-05-10T05:35:25.700Z,66.83
2023-05-10T05:37:57.744Z,66.74
2023-05-10T05:40:27.170Z,67.10
2023-05-10T05:42:56.595Z,67.83
2023-05-10T05:45:26.018Z,67.79
2023-05-10T05:47:55.514Z,66.84
2023-05-10T05:50:25.067Z,68.14
2023-05-10T05:52:54.514Z,67.50
2023-05-10T05:55:27.020Z,67.48
2023-05-10T05:57:56.499Z,67.74
2023-05-10T06:00:25.971Z,67.68
2023-05-10T06:02:55.518Z,68.77
2023-05-10T06:05:25.029Z,68.14
2023-05-10T06:07:54.473Z,68.05
2023-05-10T06:10:26.607Z,69.65
2023-05-10T06:12:56.219Z,68.95
2023-05-10T06:15:25.783Z,69.04
2023-05-10T06:17:55.348Z,68.74
2023-05-10T06:20:24.803Z,68.47
2023-05-10T06:22:54.309Z,68.71
2023-05-10T06:25:26.432Z,70.08
2023-05-10T06:27:58.884Z,70.28
2023-05-10T06:30:30.328Z,69.93
2023-05-10T06:33:00.386Z,69.82
2023-05-10T06:35:30.665Z,69.74
2023-05-10T06:38:00.231Z,70.98
2023-05-10T06:40:32.499Z,71.38
2023-05-10T06:43:02.020Z,71.81
2023-05-10T06:45:31.572Z,71.63
2023-05-10T06:48:01.055Z,71.62
2023-05-10T06:50:30.759Z,71.44
2023-05-10T06:53:00.314Z,71.67
2023-05-10T06:55:32.543Z,72.21
2023-05-10T06:58:02.030Z,72.30
2023-05-10T07:00:31.706Z,72.15
2023-05-10T07:03:01.236Z,72.58
2023-05-10T07:05:31.164Z,71.79
2023-05-10T07:08:00.974Z,72.03
2023-05-10T07:10:33.107Z,72.31
2023-05-10T07:13:02.795Z,72.44
2023-05-10T07:15:32.764Z,72.84
2023-05-10T07:18:02.368Z,72.88
2023-05-10T07:20:31.906Z,73.48
2023-05-10T07:23:01.520Z,72.76
2023-05-10T07:25:33.585Z,73.21
2023-05-10T07:28:02.999Z,73.83
2023-05-10T07:30:32.496Z,73.19
2023-05-10T07:33:02.062Z,73.78
2023-05-10T07:35:31.637Z,73.39
2023-05-10T07:38:01.724Z,74.04
2023-05-10T07:40:33.885Z,74.36
2023-05-10T07:43:03.898Z,75.36
2023-05-10T07:45:33.601Z,74.99
2023-05-10T07:48:05.653Z,74.81
2023-05-10T07:50:35.285Z,75.30
2023-05-10T07:53:04.717Z,74.74
2023-05-10T07:55:37.045Z,75.61
2023-05-10T07:58:06.484Z,75.59
2023-05-10T08:00:36.344Z,75.55
2023-05-10T08:03:05.898Z,75.54
2023-05-10T08:05:35.873Z,76.74
2023-05-10T08:08:05.375Z,76.46
2023-05-10T08:10:37.440Z,75.88
2023-05-10T08:13:07.214Z,75.52
2023-05-10T08:15:36.678Z,75.59
2023-05-10T08:18:06.282Z,76.53
2023-05-10T08:20:35.755Z,77.03
2023-05-10T08:23:07.218Z,77.34
2023-05-10T08:25:39.258Z,76.84
2023-05-10T08:28:09.994Z,76.93
2023-05-10T08:30:41.308Z,77.07
2023-05-10T08:33:10.774Z,76.52
2023-05-10T08:35:40.331Z,76.98
2023-05-10T08:38:09.767Z,76.46
2023-05-10T08:40:44.286Z,76.68
2023-05-10T08:43:16.543Z,77.39
2023-05-10T08:45:48.953Z,76.08
2023-05-10T08:48:19.281Z,75.77
2023-05-10T08:50:50.132Z,76.66
2023-05-10T08:53:20.406Z,76.05
2023-05-10T08:55:52.500Z,75.56
2023-05-10T08:58:23.223Z,76.91
2023-05-10T09:00:54.693Z,75.91
2023-05-10T09:03:24.314Z,77.08
2023-05-10T09:05:53.815Z,77.04
2023-05-10T09:08:26.469Z,76.39
2023-05-10T09:10:58.701Z,75.28
2023-05-10T09:13:28.688Z,75.97
2023-05-10T09:16:02.138Z,75.16
2023-05-10T09:18:36.560Z,74.22
2023-05-10T09:21:06.544Z,75.15
2023-05-10T09:23:36.029Z,74.85
2023-05-10T09:26:08.896Z,74.58
2023-05-10T09:28:53.589Z,74.24
2023-05-10T09:31:23.377Z,74.45
2023-05-10T09:33:54.227Z,74.71
2023-05-10T09:36:23.754Z,75.08
2023-05-10T09:38:55.963Z,75.16
2023-05-10T09:41:29.226Z,74.40
2023-05-10T09:43:59.925Z,75.09
2023-05-10T09:46:29.596Z,75.38
2023-05-10T09:48:59.229Z,74.42
2023-05-10T09:51:29.220Z,74.63
2023-05-10T09:54:13.765Z,74.69
2023-05-10T09:56:46.455Z,74.72
2023-05-10T09:59:16.516Z,74.02
2023-05-10T10:01:46.000Z,74.00
2023-05-10T10:04:15.700Z,74.49
2023-05-10T10:06:45.719Z,74.23
2023-05-10T10:09:15.205Z,73.29
2023-05-10T10:11:47.283Z,73.45
2023-05-10T10:14:16.798Z,74.64
2023-05-10T10:16:55.710Z,73.06
2023-05-10T10:19:37.246Z,74.04
2023-05-10T10:22:07.367Z,72.77
2023-05-10T10:24:36.962Z,73.35
2023-05-10T10:27:19.054Z,72.93
2023-05-10T10:30:03.161Z,72.59
2023-05-10T10:32:41.982Z,72.15
2023-05-10T10:35:12.685Z,72.59
2023-05-10T10:37:47.359Z,72.32
2023-05-10T10:40:32.824Z,72.06
2023-05-10T10:43:27.831Z,73.33
2023-05-10T10:46:13.754Z,72.22
2023-05-10T10:48:43.635Z,72.05
2023-05-10T10:51:13.163Z,72.41
2023-05-10T10:53:43.981Z,71.73
2023-05-10T10:56:16.638Z,71.48
2023-05-10T10:58:54.706Z,70.39
2023-05-10T11:01:24.697Z,71.05
2023-05-10T11:04:21.466Z,71.57
2023-05-10T11:06:51.137Z,70.98
2023-05-10T11:09:21.875Z,71.12
2023-05-10T11:11:56.616Z,69.72
2023-05-10T11:14:29.334Z,69.88
2023-05-10T11:16:58.650Z,68.88
2023-05-10T11:19:31.646Z,68.57
2023-05-10T11:22:16.692Z,69.12
2023-05-10T11:25:00.388Z,69.15
2023-05-10T11:27:30.225Z,67.96
2023-05-10T11:30:04.289Z,67.95
2023-05-10T11:32:34.720Z,67.44
2023-05-10T11:35:11.011Z,68.00
2023-05-10T11:37:42.512Z,67.40
2023-05-10T11:40:12.747Z,67.62
2023-05-10T11:42:42.505Z,68.20
2023-05-10T11:45:14.949Z,67.46
2023-05-10T11:47:44.714Z,67.17
2023-05-10T11:50:15.221Z,66.99
2023-05-10T11:52:44.963Z,66.54
2023-05-10T11:55:16.062Z,67.32
2023-05-10T11:57:47.027Z,67.10
2023-05-10T12:00:19.934Z,66.89
2023-05-10T12:02:50.132Z,66.97
2023-05-10T12:05:20.524Z,66.56
2023-05-10T12:07:49.975Z,66.73
2023-05-10T12:10:19.752Z,65.05
2023-05-10T12:12:51.225Z,65.51
2023-05-10T12:15:25.430Z,65.32
2023-05-10T12:17:55.865Z,64.26
2023-05-10T12:20:27.270Z,64.63
2023-05-10T12:23:00.362Z,64.15
2023-05-10T12:25:34.390Z,64.17
2023-05-10T12:28:07.526Z,63.75
2023-05-10T12:30:40.671Z,64.22
2023-05-10T12:33:16.203Z,64.56
2023-05-10T12:35:50.312Z,64.85
2023-05-10T12:38:31.875Z,64.85
2023-05-10T12:41:02.055Z,64.42
2023-05-10T12:43:32.032Z,64.39
2023-05-10T12:46:08.710Z,64.52
2023-05-10T12:48:38.933Z,64.24
2023-05-10T12:51:10.522Z,64.59
2023-05-10T12:53:41.501Z,64.37
2023-05-10T12:56:12.944Z,64.51
2023-05-10T12:58:42.640Z,64.28
2023-05-10T13:01:14.787Z,64.32
2023-05-10T13:03:44.312Z,63.71
2023-05-10T13:06:14.582Z,63.56
2023-05-10T13:08:44.069Z,62.76
2023-05-10T13:11:17.623Z,63.09
2023-05-10T13:13:47.109Z,63.65
2023-05-10T13:16:19.257Z,63.75
2023-05-10T13:18:48.879Z,63.84
2023-05-10T13:21:18.415Z,63.82
2023-05-10T13:23:47.894Z,63.41
2023-05-10T13:26:17.390Z,63.34
2023-05-10T13:28:47.516Z,63.16
2023-05-10T13:31:19.562Z,63.58
2023-05-10T13:33:49.028Z,63.69
2023-05-10T13:36:18.482Z,63.83
2023-05-10T13:38:47.915Z,64.29
2023-05-10T13:41:17.370Z,64.56
2023-05-10T13:43:47.080Z,64.66
2023-05-10T13:46:19.213Z,63.85
2023-05-10T13:48:48.741Z,64.10
2023-05-10T13:51:18.196Z,64.49
2023-05-10T13:53:48.165Z,63.90
2023-05-10T13:56:17.740Z,63.98
2023-05-10T13:58:47.567Z,64.13
2023-05-10T14:01:19.729Z,64.70
2023-05-10T14:03:49.366Z,64.67
2023-05-10T14:06:19.000Z,64.78
2023-05-10T14:08:48.473Z,64.71
2023-05-10T14:11:18.638Z,64.37
2023-05-10T14:13:48.126Z,64.59
2023-05-10T14:16:21.229Z,64.64
2023-05-10T14:18:50.990Z,64.46
2023-05-10T14:21:20.650Z,63.69
2023-05-10T14:23:50.122Z,63.24
2023-05-10T14:26:19.695Z,63.04
2023-05-10T14:28:49.227Z,62.66
2023-05-10T14:31:21.605Z,62.87
2023-05-10T14:33:51.241Z,62.88
2023-05-10T14:36:21.116Z,63.15
2023-05-10T14:38:50.631Z,63.01
2023-05-10T14:41:20.199Z,63.21
2023-05-10T14:43:49.768Z,63.23
2023-05-10T14:46:21.993Z,63.38
2023-05-10T14:48:51.516Z,63.40
2023-05-10T14:51:22.884Z,63.54
2023-05-10T14:53:52.877Z,63.77
2023-05-10T14:56:22.619Z,63.80
2023-05-10T14:58:53.767Z,63.77
2023-05-10T15:01:26.374Z,63.86
2023-05-10T15:03:56.348Z,63.72
2023-05-10T15:06:26.989Z,64.01
2023-05-10T15:08:56.230Z,64.02
2023-05-10T15:11:25.484Z,64.48
2023-05-10T15:13:54.803Z,64.76
2023-05-10T15:16:26.821Z,64.41
2023-05-10T15:18:56.303Z,64.65
2023-05-10T15:21:25.616Z,65.12
2023-05-10T15:23:55.202Z,64.93
2023-05-10T15:26:25.155Z,64.95
2023-05-10T15:28:54.482Z,64.99
2023-05-10T15:31:26.582Z,65.18
2023-05-10T15:34:00.537Z,65.30
2023-05-10T15:36:29.911Z,65.41
2023-05-10T15:38:59.198Z,65.45
2023-05-10T15:41:31.274Z,65.38
2023-05-10T15:44:01.091Z,65.44
2023-05-10T15:46:33.411Z,65.40
2023-05-10T15:49:02.798Z,65.32
2023-05-10T15:51:35.364Z,65.56
2023-05-10T15:54:08.334Z,65.72
2023-05-10T15:56:38.278Z,65.88
2023-05-10T15:59:08.798Z,66.74
2023-05-10T16:01:40.694Z,66.96
2023-05-10T16:04:10.054Z,67.61
2023-05-10T16:06:39.759Z,68.20
2023-05-10T16:09:09.045Z,69.25
2023-05-10T16:11:38.316Z,70.58
2023-05-10T16:14:07.626Z,71.10
2023-05-10T16:16:37.057Z,71.44
2023-05-10T16:19:09.123Z,71.52
2023-05-10T16:21:38.650Z,71.08
2023-05-10T16:24:08.332Z,71.60
2023-05-10T16:26:41.176Z,72.00
2023-05-10T16:29:10.693Z,72.00
2023-05-10T16:31:40.038Z,72.26
2023-05-10T16:34:11.898Z,72.75
2023-05-10T16:36:41.237Z,73.13
2023-05-10T16:39:11.367Z,72.79
2023-05-10T16:41:40.746Z,72.51
2023-05-10T16:44:10.014Z,73.33
2023-05-10T16:46:39.384Z,73.52
2023-05-10T16:49:12.481Z,73.85
2023-05-10T16:51:41.850Z,74.02
2023-05-10T16:54:11.093Z,73.78
2023-05-10T16:56:40.439Z,73.26
2023-05-10T16:59:09.774Z,73.10
2023-05-10T17:01:39.074Z,73.91
2023-05-10T17:04:08.464Z,73.97
2023-05-10T17:06:40.915Z,73.07
2023-05-10T17:09:10.206Z,72.92
2023-05-10T17:11:39.508Z,73.32
2023-05-10T17:14:08.867Z,74.32
2023-05-10T17:16:38.312Z,73.45
2023-05-10T17:19:07.849Z,74.45
2023-05-10T17:21:37.197Z,75.02
2023-05-10T17:24:09.408Z,75.72
2023-05-10T17:26:38.742Z,75.00
2023-05-10T17:29:08.051Z,74.66
2023-05-10T17:31:37.324Z,74.97
2023-05-10T17:34:06.703Z,75.54
2023-05-10T17:36:36.137Z,74.95
2023-05-10T17:39:05.463Z,75.92
2023-05-10T17:41:37.358Z,74.95
2023-05-10T17:44:06.717Z,74.85
2023-05-10T17:46:35.995Z,74.49
2023-05-10T17:49:05.325Z,74.86
2023-05-10T17:51:34.867Z,75.00
2023-05-10T17:54:04.229Z,75.02
2023-05-10T17:56:33.541Z,74.76
2023-05-10T17:59:05.489Z,75.65
2023-05-10T18:01:34.933Z,75.82
2023-05-10T18:04:06.208Z,76.18
2023-05-10T18:06:38.365Z,75.70
2023-05-10T18:09:07.844Z,76.20
2023-05-10T18:11:38.729Z,76.41
2023-05-10T18:14:10.766Z,76.16
2023-05-10T18:16:40.250Z,77.01
2023-05-10T18:19:09.648Z,76.13
2023-05-10T18:21:39.188Z,76.51
2023-05-10T18:24:08.923Z,76.10
2023-05-10T18:26:38.319Z,76.37
2023-05-10T18:29:10.147Z,77.03
2023-05-10T18:31:39.467Z,76.77
2023-05-10T18:34:08.830Z,76.55
2023-05-10T18:36:38.162Z,76.25
2023-05-10T18:39:08.512Z,76.43
2023-05-10T18:41:37.843Z,76.75
2023-05-10T18:44:09.737Z,76.51
2023-05-10T18:46:39.156Z,76.45
2023-05-10T18:49:08.640Z,75.85
2023-05-10T18:51:37.942Z,76.15
2023-05-10T18:54:07.446Z,76.65
2023-05-10T18:56:36.751Z,76.79
2023-05-10T18:59:06.079Z,76.54
2023-05-10T19:01:37.994Z,76.27
2023-05-10T19:04:08.106Z,76.66
2023-05-10T19:06:37.424Z,76.72
2023-05-10T19:09:07.032Z,76.97
2023-05-10T19:11:36.396Z,76.38
2023-05-10T19:14:05.889Z,76.84
2023-05-10T19:16:37.884Z,77.19
2023-05-10T19:19:08.702Z,76.70
2023-05-10T19:21:38.125Z,76.90
2023-05-10T19:24:07.614Z,76.67
2023-05-10T19:26:36.891Z,76.54
2023-05-10T19:29:06.200Z,76.58
2023-05-10T19:31:38.116Z,76.43
2023-05-10T19:34:07.388Z,75.66
2023-05-10T19:36:36.780Z,75.95
2023-05-10T19:39:06.047Z,75.16
2023-05-10T19:41:35.325Z,75.63
2023-05-10T19:44:04.762Z,75.43
2023-05-10T19:46:34.328Z,75.61
2023-05-10T19:49:06.237Z,75.10
2023-05-10T19:51:35.571Z,75.59
2023-05-10T19:54:05.458Z,74.80
2023-05-10T19:56:34.755Z,75.78
2023-05-10T19:59:04.382Z,75.61
2023-05-10T20:01:33.741Z,75.63
2023-05-10T20:04:06.117Z,76.02
2023-05-10T20:06:35.464Z,75.44
2023-05-10T20:09:05.060Z,75.77
2023-05-10T20:11:34.323Z,75.45
2023-05-10T20:14:03.907Z,75.91
2023-05-10T20:16:33.391Z,75.78
2023-05-10T20:19:02.866Z,75.78
2023-05-10T20:21:35.612Z,75.77
2023-05-10T20:24:04.946Z,75.66
2023-05-10T20:26:34.245Z,76.20
2023-05-10T20:29:03.854Z,75.68
2023-05-10T20:31:33.327Z,75.83
2023-05-10T20:34:02.689Z,75.96
2023-05-10T20:36:31.990Z,75.82
2023-05-10T20:39:03.894Z,75.31
2023-05-10T20:41:33.174Z,75.68
2023-05-10T20:44:02.442Z,75.44
2023-05-10T20:46:31.825Z,75.39
2023-05-10T20:49:01.157Z,75.61
2023-05-10T20:51:33.119Z,75.86
2023-05-10T20:54:04.976Z,75.26
2023-05-10T20:56:35.148Z,75.23
2023-05-10T20:59:04.429Z,76.17
2023-05-10T21:01:33.885Z,75.73
2023-05-10T21:04:03.211Z,75.93
2023-05-10T21:06:32.592Z,76.53
2023-05-10T21:09:02.045Z,76.34
2023-05-10T21:11:36.210Z,75.83
2023-05-10T21:14:05.700Z,76.22
2023-05-10T21:16:35.074Z,76.47
2023-05-10T21:19:04.634Z,76.26
2023-05-10T21:21:34.070Z,75.96
2023-05-10T21:24:03.369Z,75.99
2023-05-10T21:26:35.334Z,76.68
2023-05-10T21:29:05.264Z,76.16
2023-05-10T21:31:34.676Z,76.14
2023-05-10T21:34:03.992Z,76.07
2023-05-10T21:36:33.626Z,76.34
2023-05-10T21:39:03.363Z,76.64
2023-05-10T21:41:35.280Z,76.11
2023-05-10T21:44:04.665Z,75.85
2023-05-10T21:46:34.185Z,76.28
2023-05-10T21:49:03.452Z,75.74
2023-05-10T21:51:33.186Z,76.39
2023-05-10T21:54:02.806Z,77.01
2023-05-10T21:56:32.066Z,76.40
2023-05-10T21:59:04.495Z,77.07
2023-05-10T22:01:33.864Z,76.56
2023-05-10T22:04:03.171Z,76.49
2023-05-10T22:06:32.440Z,75.95
2023-05-10T22:09:02.375Z,76.65
2023-05-10T22:11:31.668Z,76.73
2023-05-10T22:14:01.000Z,76.61
2023-05-10T22:16:32.875Z,76.77
2023-05-10T22:19:02.334Z,76.91
2023-05-10T22:21:32.038Z,76.53
2023-05-10T22:24:01.339Z,77.16
2023-05-10T22:26:30.683Z,77.22
2023-05-10T22:28:59.985Z,76.70
2023-05-10T22:31:29.689Z,77.14
2023-05-10T22:34:01.600Z,77.41
2023-05-10T22:36:31.723Z,76.89
2023-05-10T22:39:01.132Z,76.85
2023-05-10T22:41:30.419Z,77.91
2023-05-10T22:43:59.758Z,77.79
2023-05-10T22:46:29.394Z,77.04
2023-05-10T22:49:01.443Z,77.59
2023-05-10T22:51:31.117Z,77.85
2023-05-10T22:54:00.409Z,78.30
2023-05-10T22:56:29.882Z,77.68
2023-05-10T22:58:59.492Z,77.37
2023-05-10T23:01:28.974Z,77.82
2023-05-10T23:04:01.256Z,77.23
2023-05-10T23:06:30.670Z,77.22
2023-05-10T23:09:00.061Z,77.61
2023-05-10T23:11:29.355Z,78.26
2023-05-10T23:13:58.875Z,77.80
2023-05-10T23:16:28.180Z,78.19
2023-05-10T23:18:57.532Z,78.00
2023-05-10T23:21:31.852Z,77.85
2023-05-10T23:24:01.495Z,77.81
2023-05-10T23:26:30.892Z,77.07
2023-05-10T23:29:00.174Z,77.32
2023-05-10T23:31:29.746Z,77.51
2023-05-10T23:33:59.040Z,77.57
2023-05-10T23:36:31.916Z,77.36
2023-05-10T23:39:01.478Z,78.17
2023-05-10T23:41:30.809Z,78.28
2023-05-10T23:44:00.074Z,78.11
2023-05-10T23:46:33.605Z,78.25
2023-05-10T23:49:03.062Z,78.26
2023-05-10T23:51:34.936Z,78.50
2023-05-10T23:54:04.225Z,78.59
2023-05-10T23:56:33.649Z,79.15
2023-05-10T23:59:03.018Z,79.00
